createdAt,value
2019-01-24T00:01:36.589Z,54.53
2019-01-24T00:04:25.949Z,63.25
2019-01-24T00:06:56.367Z,61.23
2019-01-24T00:09:45.488Z,74.37
2019-01-24T00:12:33.906Z,65.00
2019-01-24T00:15:04.849Z,70.10
2019-01-24T00:17:54.012Z,64.55
2019-01-24T00:20:24.237Z,69.62
2019-01-24T00:22:54.575Z,69.47
2019-01-24T00:25:43.714Z,66.28
2019-01-24T00:28:33.408Z,69.50
2019-01-24T00:31:04.350Z,72.00
2019-01-24T00:33:53.437Z,63.25
2019-01-24T00:36:24.007Z,63.33
2019-01-24T00:39:13.078Z,69.92
2019-01-24T00:42:02.475Z,66.40
2019-01-24T00:44:51.635Z,62.93
2019-01-24T00:47:41.284Z,65.00
2019-01-24T00:50:30.751Z,69.15
2019-01-24T00:53:20.248Z,62.73
2019-01-24T00:56:00.737Z,74.12
2019-01-24T00:58:42.038Z,77.40
2019-01-24T01:01:12.553Z,66.07
2019-01-24T01:03:43.444Z,65.35
2019-01-24T01:06:32.221Z,76.45
2019-01-24T01:09:21.299Z,79.47
2019-01-24T01:12:09.978Z,66.30
2019-01-24T01:14:58.429Z,73.22
2019-01-24T01:17:46.932Z,74.50
2019-01-24T01:20:35.676Z,69.90
2019-01-24T01:23:25.629Z,71.28
2019-01-24T01:25:57.230Z,70.42
2019-01-24T01:28:46.588Z,71.75
2019-01-24T01:31:35.673Z,70.90
2019-01-24T01:34:24.346Z,75.62
2019-01-24T01:37:13.372Z,77.85
2019-01-24T01:40:02.649Z,75.78
2019-01-24T01:42:51.911Z,65.83
2019-01-24T01:45:40.835Z,69.67
2019-01-24T01:48:30.048Z,82.22
2019-01-24T01:51:18.791Z,66.17
2019-01-24T01:54:08.011Z,78.15
2019-01-24T01:56:49.151Z,69.35
2019-01-24T01:59:30.658Z,69.17
2019-01-24T02:02:12.440Z,67.40
2019-01-24T02:04:53.692Z,71.75
2019-01-24T02:07:35.367Z,66.65
2019-01-24T02:10:16.712Z,63.85
2019-01-24T02:12:57.965Z,67.27
2019-01-24T02:15:38.424Z,70.15
2019-01-24T02:18:19.587Z,65.15
2019-01-24T02:21:00.718Z,66.28
2019-01-24T02:23:30.711Z,78.52
2019-01-24T02:26:19.832Z,69.00
2019-01-24T02:29:08.701Z,68.87
2019-01-24T02:31:58.043Z,64.80
2019-01-24T02:34:49.732Z,73.55
2019-01-24T02:37:36.231Z,62.75
2019-01-24T02:40:24.897Z,65.78
2019-01-24T02:42:55.183Z,61.08
2019-01-24T02:45:44.557Z,68.70
2019-01-24T02:48:33.541Z,71.87
2019-01-24T02:51:04.110Z,70.90
2019-01-24T02:53:53.207Z,75.87
2019-01-24T02:56:42.502Z,67.50
2019-01-24T02:59:31.536Z,71.07
2019-01-24T03:02:20.197Z,70.25
2019-01-24T03:05:09.582Z,72.72
2019-01-24T03:07:58.382Z,63.52
2019-01-24T03:10:46.824Z,67.10
2019-01-24T03:13:36.029Z,73.78
2019-01-24T03:16:24.909Z,71.57
2019-01-24T03:19:13.242Z,79.90
2019-01-24T03:22:02.456Z,60.52
2019-01-24T03:24:51.344Z,70.17
2019-01-24T03:27:40.274Z,73.05
2019-01-24T03:30:29.282Z,73.80
2019-01-24T03:33:18.204Z,69.97
2019-01-24T03:36:07.223Z,69.80
2019-01-24T03:38:56.254Z,74.50
2019-01-24T03:41:45.115Z,62.03
2019-01-24T03:44:34.358Z,78.75
2019-01-24T03:47:23.672Z,78.52
2019-01-24T03:50:14.134Z,68.72
2019-01-24T03:53:03.337Z,65.62
2019-01-24T03:55:44.913Z,65.65
2019-01-24T03:58:26.214Z,62.85
2019-01-24T04:01:07.601Z,71.10
2019-01-24T04:03:48.937Z,61.60
2019-01-24T04:06:30.644Z,72.35
2019-01-24T04:09:12.200Z,70.10
2019-01-24T04:11:53.169Z,70.55
2019-01-24T04:14:34.087Z,77.45
2019-01-24T04:17:16.008Z,70.03
2019-01-24T04:19:45.939Z,74.25
2019-01-24T04:22:35.119Z,72.47
2019-01-24T04:25:23.939Z,67.75
2019-01-24T04:28:13.154Z,72.65
2019-01-24T04:31:02.214Z,70.45
2019-01-24T04:33:51.128Z,80.50
2019-01-24T04:36:39.830Z,65.65
2019-01-24T04:39:28.463Z,66.60
2019-01-24T04:42:17.463Z,70.78
2019-01-24T04:45:06.457Z,85.47
2019-01-24T04:47:55.863Z,76.10
2019-01-24T04:50:44.699Z,75.72
2019-01-24T04:53:33.577Z,68.83
2019-01-24T04:56:15.173Z,64.17
2019-01-24T04:58:56.267Z,68.62
2019-01-24T05:01:37.912Z,67.22
2019-01-24T05:04:19.477Z,68.83
2019-01-24T05:07:01.018Z,69.20
2019-01-24T05:09:42.445Z,64.47
2019-01-24T05:12:23.684Z,72.75
2019-01-24T05:15:04.809Z,71.87
2019-01-24T05:17:46.384Z,71.53
2019-01-24T05:20:27.763Z,76.25
2019-01-24T05:23:09.397Z,66.82
2019-01-24T05:25:51.155Z,75.25
2019-01-24T05:31:31.982Z,74.17
2019-01-24T05:34:12.967Z,69.70
2019-01-24T05:36:53.909Z,71.72
2019-01-24T05:39:35.906Z,70.52
2019-01-24T05:42:17.431Z,76.40
2019-01-24T05:44:58.252Z,73.57
2019-01-24T05:47:39.769Z,75.95
2019-01-24T05:53:03.756Z,77.03
2019-01-24T05:55:44.929Z,67.37
2019-01-24T05:58:25.836Z,73.07
2019-01-24T06:01:08.820Z,67.60
2019-01-24T06:03:50.471Z,65.47
2019-01-24T06:06:32.087Z,72.12
2019-01-24T06:09:13.751Z,73.10
2019-01-24T06:11:55.196Z,76.17
2019-01-24T06:14:36.577Z,64.05
2019-01-24T06:17:18.012Z,126.70
2019-01-24T06:19:59.306Z,73.83
2019-01-24T06:22:40.481Z,87.40
2019-01-24T06:25:22.217Z,76.53
2019-01-24T06:28:03.135Z,75.78
2019-01-24T06:30:44.529Z,75.55
2019-01-24T06:33:26.081Z,71.02
2019-01-24T06:36:07.197Z,88.37
2019-01-24T06:38:47.952Z,81.02
2019-01-24T06:41:17.736Z,80.70
2019-01-24T06:44:06.571Z,72.37
2019-01-24T06:46:55.116Z,69.27
2019-01-24T06:49:44.625Z,77.72
2019-01-24T06:52:33.745Z,69.25
2019-01-24T06:55:23.761Z,63.17
2019-01-24T06:58:12.544Z,76.05
2019-01-24T07:01:01.670Z,81.67
2019-01-24T07:03:50.825Z,70.10
2019-01-24T07:06:40.116Z,77.67
2019-01-24T07:09:28.971Z,70.85
2019-01-24T07:12:17.816Z,71.10
2019-01-24T07:15:07.495Z,77.35
2019-01-24T07:17:56.383Z,73.30
2019-01-24T07:20:44.693Z,74.53
2019-01-24T07:23:33.491Z,77.32
2019-01-24T07:26:22.300Z,81.00
2019-01-24T07:29:11.072Z,79.00
2019-01-24T07:31:41.451Z,75.70
2019-01-24T07:34:30.222Z,73.92
2019-01-24T07:37:18.556Z,81.82
2019-01-24T07:40:07.939Z,73.45
2019-01-24T07:42:57.086Z,73.83
2019-01-24T07:45:45.902Z,71.82
2019-01-24T07:48:34.502Z,76.02
2019-01-24T07:51:23.039Z,79.92
2019-01-24T07:54:11.801Z,81.20
2019-01-24T07:56:52.781Z,74.60
2019-01-24T07:59:34.060Z,83.50
2019-01-24T08:02:15.378Z,72.45
2019-01-24T08:04:57.103Z,76.82
2019-01-24T08:10:12.074Z,82.82
2019-01-24T08:13:01.183Z,76.72
2019-01-24T08:15:50.011Z,77.20
2019-01-24T08:18:39.459Z,74.85
2019-01-24T08:21:28.514Z,72.70
2019-01-24T08:24:17.776Z,70.85
2019-01-24T08:27:06.315Z,84.30
2019-01-24T08:29:55.095Z,81.30
2019-01-24T08:32:43.760Z,78.30
2019-01-24T08:35:32.533Z,80.97
2019-01-24T08:38:21.590Z,72.65
2019-01-24T08:41:10.090Z,74.85
2019-01-24T08:43:59.550Z,75.67
2019-01-24T08:46:48.542Z,82.02
2019-01-24T08:49:37.935Z,77.37
2019-01-24T08:52:26.739Z,76.60
2019-01-24T08:55:17.603Z,90.87
2019-01-24T08:57:59.287Z,74.30
2019-01-24T09:00:40.521Z,74.85
2019-01-24T09:03:22.367Z,73.22
2019-01-24T09:06:03.903Z,73.47
2019-01-24T09:08:45.932Z,73.92
2019-01-24T09:11:27.163Z,77.47
2019-01-24T09:14:08.488Z,79.77
2019-01-24T09:16:50.178Z,78.02
2019-01-24T09:19:31.665Z,82.70
2019-01-24T09:22:12.402Z,75.78
2019-01-24T09:24:42.125Z,79.07
2019-01-24T09:27:30.947Z,88.33
2019-01-24T09:30:20.849Z,77.72
2019-01-24T09:32:51.022Z,74.87
2019-01-24T09:35:39.565Z,82.08
2019-01-24T09:38:28.163Z,73.60
2019-01-24T09:41:17.148Z,82.82
2019-01-24T09:44:06.420Z,86.10
2019-01-24T09:46:55.471Z,76.05
2019-01-24T09:49:44.367Z,75.90
2019-01-24T09:52:33.457Z,80.72
2019-01-24T09:55:22.267Z,80.70
2019-01-24T09:58:03.933Z,72.70
2019-01-24T10:00:45.374Z,79.30
2019-01-24T10:03:15.751Z,74.35
2019-01-24T10:06:04.923Z,71.00
2019-01-24T10:08:54.123Z,68.42
2019-01-24T10:11:43.201Z,80.50
2019-01-24T10:14:32.272Z,71.87
2019-01-24T10:17:21.391Z,67.25
2019-01-24T10:20:11.693Z,73.25
2019-01-24T10:23:00.536Z,74.77
2019-01-24T10:25:49.808Z,75.72
2019-01-24T10:28:38.657Z,76.12
2019-01-24T10:31:27.741Z,82.25
2019-01-24T10:34:17.031Z,81.10
2019-01-24T10:37:06.260Z,72.42
2019-01-24T10:39:36.810Z,71.53
2019-01-24T10:42:25.924Z,68.12
2019-01-24T10:45:35.418Z,70.10
2019-01-24T10:48:24.263Z,71.65
2019-01-24T10:51:13.055Z,70.15
2019-01-24T10:54:01.540Z,73.85
2019-01-24T10:56:50.333Z,74.80
2019-01-24T10:59:31.788Z,72.58
2019-01-24T11:02:13.019Z,76.12
2019-01-24T11:04:54.574Z,69.90
2019-01-24T11:07:36.455Z,73.40
2019-01-24T11:10:18.122Z,68.57
2019-01-24T11:13:00.087Z,70.83
2019-01-24T11:15:41.475Z,71.02
2019-01-24T11:24:25.599Z,72.10
2019-01-24T11:27:07.638Z,64.30
2019-01-24T11:29:49.114Z,76.53
2019-01-24T11:32:30.554Z,75.25
2019-01-24T11:35:12.703Z,69.37
2019-01-24T11:37:54.684Z,69.50
2019-01-24T11:40:36.088Z,67.80
2019-01-24T11:43:18.104Z,76.55
2019-01-24T11:45:59.496Z,70.80
2019-01-24T11:48:40.852Z,79.07
2019-01-24T11:51:22.667Z,78.05
2019-01-24T11:54:03.704Z,76.85
2019-01-24T11:56:44.921Z,70.35
2019-01-24T11:59:26.116Z,73.78
2019-01-24T12:02:07.331Z,71.37
2019-01-24T12:04:48.500Z,69.90
2019-01-24T12:07:29.656Z,70.97
2019-01-24T12:10:11.126Z,74.30
2019-01-24T12:12:52.213Z,78.57
2019-01-24T12:15:34.060Z,68.92
2019-01-24T12:18:14.901Z,67.08
2019-01-24T12:20:55.818Z,68.62
2019-01-24T12:23:37.124Z,68.70
2019-01-24T12:26:18.659Z,76.07
2019-01-24T12:29:00.417Z,72.37
2019-01-24T12:34:40.915Z,65.28
2019-01-24T12:37:21.646Z,68.15
2019-01-24T12:40:03.481Z,73.62
2019-01-24T12:42:44.832Z,72.97
2019-01-24T12:45:34.884Z,85.85
2019-01-24T12:48:23.983Z,73.12
2019-01-24T12:50:54.118Z,77.55
2019-01-24T12:53:42.399Z,76.35
2019-01-24T12:56:30.368Z,80.30
2019-01-24T12:59:18.870Z,77.42
2019-01-24T13:02:07.773Z,83.85
2019-01-24T13:04:56.953Z,75.32
2019-01-24T13:07:45.720Z,85.65
2019-01-24T13:10:17.962Z,71.40
2019-01-24T13:13:06.815Z,67.65
2019-01-24T13:15:55.877Z,73.28
2019-01-24T13:18:45.001Z,90.55
2019-01-24T13:21:34.348Z,75.00
2019-01-24T13:24:23.364Z,84.03
2019-01-24T13:27:12.019Z,77.20
2019-01-24T13:30:01.329Z,83.42
2019-01-24T13:32:50.178Z,74.80
2019-01-24T13:35:39.503Z,74.07
2019-01-24T13:38:09.730Z,76.75
2019-01-24T13:40:58.940Z,74.27
2019-01-24T13:43:47.576Z,81.42
2019-01-24T13:46:36.888Z,72.08
2019-01-24T13:49:25.816Z,76.17
2019-01-24T13:51:56.222Z,82.88
2019-01-24T13:54:44.857Z,72.72
2019-01-24T13:57:33.455Z,73.95
2019-01-24T14:00:41.116Z,76.02
2019-01-24T14:03:49.046Z,79.92
2019-01-24T14:06:20.161Z,68.22
2019-01-24T14:09:10.245Z,68.37
2019-01-24T14:11:59.469Z,82.00
2019-01-24T14:14:48.340Z,75.60
2019-01-24T14:17:29.675Z,71.75
2019-01-24T14:20:11.400Z,72.85
2019-01-24T14:22:52.515Z,92.85
2019-01-24T14:25:33.548Z,62.23
2019-01-24T14:28:15.000Z,70.92
2019-01-24T14:30:56.492Z,63.10
2019-01-24T14:33:37.820Z,65.08
2019-01-24T14:36:25.293Z,64.32
2019-01-24T14:38:51.831Z,58.55
2019-01-24T14:41:40.782Z,62.65
2019-01-24T14:44:29.682Z,59.45
2019-01-24T14:47:17.986Z,68.62
2019-01-24T14:50:08.618Z,65.22
2019-01-24T14:52:57.103Z,67.92
2019-01-24T14:55:45.986Z,74.58
2019-01-24T14:58:34.767Z,86.70
2019-01-24T15:01:16.850Z,91.30
2019-01-24T15:03:58.103Z,82.95
2019-01-24T15:06:39.181Z,86.17
2019-01-24T15:09:20.462Z,88.40
2019-01-24T15:12:01.494Z,84.05
2019-01-24T15:14:42.931Z,82.05
2019-01-24T15:17:24.512Z,89.28
2019-01-24T15:20:05.544Z,93.12
2019-01-24T15:22:46.461Z,88.03
2019-01-24T15:25:27.503Z,92.35
2019-01-24T15:28:08.895Z,86.45
2019-01-24T15:30:53.452Z,93.40
2019-01-24T15:33:35.439Z,97.37
2019-01-24T15:36:17.125Z,88.35
2019-01-24T15:38:58.623Z,85.38
2019-01-24T15:41:40.303Z,90.87
2019-01-24T15:44:21.643Z,86.30
2019-01-24T15:47:02.979Z,89.80
2019-01-24T15:49:44.598Z,92.97
2019-01-24T15:52:26.154Z,82.27
2019-01-24T15:55:08.105Z,98.75
2019-01-24T15:57:49.727Z,88.37
2019-01-24T16:00:31.457Z,96.75
2019-01-24T16:03:12.765Z,89.80
2019-01-24T16:05:54.742Z,93.78
2019-01-24T16:08:36.326Z,89.75
2019-01-24T16:11:17.711Z,85.20
2019-01-24T16:13:59.000Z,92.70
2019-01-24T16:16:40.044Z,97.53
2019-01-24T16:19:10.707Z,85.17
2019-01-24T16:21:40.883Z,93.87
2019-01-24T16:24:29.741Z,90.40
2019-01-24T16:27:18.707Z,84.47
2019-01-24T16:33:37.146Z,79.60
2019-01-24T16:36:26.314Z,93.87
2019-01-24T16:39:15.148Z,91.47
2019-01-24T16:42:04.460Z,86.42
2019-01-24T16:44:53.211Z,95.55
2019-01-24T16:47:42.088Z,81.47
2019-01-24T16:50:31.348Z,87.10
2019-01-24T16:53:20.365Z,96.15
2019-01-24T16:56:09.205Z,97.20
2019-01-24T16:58:58.478Z,98.03
2019-01-24T17:01:46.992Z,83.37
2019-01-24T17:04:35.795Z,85.67
2019-01-24T17:07:24.843Z,97.40
2019-01-24T17:10:14.964Z,85.42
2019-01-24T17:12:56.323Z,85.85
2019-01-24T17:15:37.144Z,89.95
2019-01-24T17:18:18.208Z,85.45
2019-01-24T17:20:58.840Z,87.50
2019-01-24T17:23:40.454Z,94.67
2019-01-24T17:26:22.146Z,93.10
2019-01-24T17:29:03.588Z,84.97
2019-01-24T17:31:44.974Z,84.95
2019-01-24T17:34:26.220Z,93.15
2019-01-24T17:37:07.578Z,93.62
2019-01-24T17:39:49.440Z,82.35
2019-01-24T17:42:31.084Z,92.88
2019-01-24T17:45:11.853Z,97.37
2019-01-24T17:47:53.984Z,82.75
2019-01-24T17:50:35.333Z,95.60
2019-01-24T17:53:18.599Z,83.80
2019-01-24T17:55:59.603Z,79.12
2019-01-24T18:01:40.744Z,96.12
2019-01-24T18:04:22.632Z,86.90
2019-01-24T18:07:04.793Z,99.92
2019-01-24T18:15:38.598Z,85.55
2019-01-24T18:18:28.547Z,90.12
2019-01-24T18:21:17.475Z,91.60
2019-01-24T18:24:06.126Z,77.08
2019-01-24T18:26:54.924Z,91.37
2019-01-24T18:29:43.956Z,87.30
2019-01-24T18:32:13.779Z,102.55
2019-01-24T18:35:02.888Z,94.42
2019-01-24T18:37:52.120Z,95.83
2019-01-24T18:40:41.410Z,90.15
2019-01-24T18:43:30.409Z,92.40
2019-01-24T18:46:19.196Z,90.42
2019-01-24T18:49:08.549Z,92.82
2019-01-24T18:51:57.677Z,90.42
2019-01-24T18:54:46.771Z,98.97
2019-01-24T18:57:35.699Z,107.50
2019-01-24T19:03:40.373Z,98.78
2019-01-24T19:06:12.058Z,86.57
2019-01-24T19:08:53.372Z,89.30
2019-01-24T19:14:06.859Z,87.92
2019-01-24T19:16:56.115Z,97.57
2019-01-24T19:19:27.728Z,91.50
2019-01-24T19:22:17.134Z,85.20
2019-01-24T19:25:07.209Z,89.10
2019-01-24T19:27:38.212Z,94.20
2019-01-24T19:30:27.974Z,93.52
2019-01-24T19:33:18.189Z,90.35
2019-01-24T19:36:07.880Z,84.50
2019-01-24T19:38:38.814Z,91.95
2019-01-24T19:41:28.264Z,87.92
2019-01-24T19:44:18.071Z,90.50
2019-01-24T19:47:09.084Z,88.12
2019-01-24T19:49:58.907Z,98.67
2019-01-24T19:52:49.535Z,94.40
2019-01-24T19:55:39.204Z,97.00
2019-01-24T19:58:29.266Z,90.05
2019-01-24T20:01:19.068Z,88.00
2019-01-24T20:04:01.316Z,94.05
2019-01-24T20:06:43.580Z,91.15
2019-01-24T20:09:15.437Z,90.47
2019-01-24T20:12:04.765Z,93.82
2019-01-24T20:14:54.561Z,93.25
2019-01-24T20:17:27.606Z,92.22
2019-01-24T20:20:16.724Z,102.22
2019-01-24T20:23:07.582Z,71.30
2019-01-24T20:25:38.590Z,88.87
2019-01-24T20:28:28.039Z,93.60
2019-01-24T20:31:19.000Z,83.00
2019-01-24T20:34:26.458Z,69.50
2019-01-24T20:37:15.653Z,70.32
2019-01-24T20:40:24.583Z,63.68
2019-01-24T20:43:14.058Z,49.05
2019-01-24T20:49:19.820Z,42.53
2019-01-24T20:52:08.820Z,42.38
2019-01-24T20:54:58.144Z,40.03
2019-01-24T20:57:47.619Z,31.68
2019-01-24T21:00:37.271Z,36.25
2019-01-24T21:03:26.784Z,34.90
2019-01-24T21:06:15.439Z,34.92
2019-01-24T21:09:25.572Z,37.63
2019-01-24T21:12:16.043Z,32.70
2019-01-24T21:18:20.488Z,41.73
2019-01-24T21:21:09.732Z,39.73
2019-01-24T21:23:58.434Z,38.88
2019-01-24T21:26:47.840Z,36.08
2019-01-24T21:29:18.357Z,37.85
2019-01-24T21:32:07.389Z,41.73
2019-01-24T21:34:56.510Z,39.00
2019-01-24T21:37:45.561Z,34.83
2019-01-24T21:40:34.672Z,40.75
2019-01-24T21:43:23.784Z,35.58
2019-01-24T21:46:12.604Z,37.98
2019-01-24T21:49:01.716Z,37.70
2019-01-24T21:51:51.385Z,44.50
2019-01-24T21:54:40.552Z,52.20
2019-01-24T21:57:29.477Z,46.15
2019-01-24T22:03:14.896Z,46.77
2019-01-24T22:05:55.806Z,54.35
2019-01-24T22:11:23.492Z,43.55
2019-01-24T22:14:05.594Z,53.20
2019-01-24T22:16:47.205Z,49.98
2019-01-24T22:19:28.535Z,54.08
2019-01-24T22:22:10.072Z,56.08
2019-01-24T22:24:50.730Z,48.78
2019-01-24T22:27:21.059Z,51.35
2019-01-24T22:29:51.152Z,54.53
2019-01-24T22:32:40.543Z,54.88
2019-01-24T22:35:29.784Z,50.60
2019-01-24T22:38:00.198Z,50.23
2019-01-24T22:40:50.851Z,51.92
2019-01-24T22:43:21.287Z,53.50
2019-01-24T22:46:10.081Z,47.20
2019-01-24T22:48:58.594Z,49.27
2019-01-24T22:51:47.714Z,48.23
2019-01-24T22:54:35.337Z,43.42
2019-01-24T22:57:05.407Z,43.20
2019-01-24T22:59:53.851Z,51.10
2019-01-24T23:02:35.212Z,54.58
2019-01-24T23:05:16.093Z,54.80
2019-01-24T23:07:57.123Z,58.98
2019-01-24T23:10:38.560Z,51.98
2019-01-24T23:13:20.342Z,51.88
2019-01-24T23:16:02.136Z,50.48
2019-01-24T23:18:43.136Z,54.35
2019-01-24T23:21:24.544Z,58.60
2019-01-24T23:24:06.518Z,59.08
2019-01-24T23:26:47.916Z,56.63
2019-01-24T23:29:29.156Z,51.92
2019-01-24T23:32:10.963Z,55.60
2019-01-24T23:34:52.911Z,60.48
2019-01-24T23:37:33.770Z,62.83
2019-01-24T23:40:15.124Z,54.18
2019-01-24T23:42:56.282Z,52.27
2019-01-24T23:45:37.315Z,63.83
2019-01-24T23:48:18.597Z,61.18
2019-01-24T23:51:00.126Z,57.25
2019-01-24T23:53:41.353Z,62.65
2019-01-24T23:56:12.123Z,57.27
2019-01-24T23:59:02.329Z,57.55
